createdAt,value
2022-10-20T00:00:19.542Z,2.67
2022-10-20T00:02:46.160Z,1.90
2022-10-20T00:05:13.066Z,2.20
2022-10-20T00:07:39.591Z,1.80
2022-10-20T00:10:06.580Z,1.90
2022-10-20T00:12:33.388Z,1.85
2022-10-20T00:15:00.114Z,2.03
2022-10-20T00:17:26.742Z,1.92
2022-10-20T00:19:53.335Z,1.80
2022-10-20T00:22:19.826Z,2.00
2022-10-20T00:24:46.378Z,1.95
2022-10-20T00:27:12.933Z,2.33
2022-10-20T00:29:39.496Z,2.08
2022-10-20T00:32:05.997Z,2.10
2022-10-20T00:34:33.281Z,2.33
2022-10-20T00:36:59.780Z,2.08
2022-10-20T00:39:26.365Z,1.92
2022-10-20T00:41:52.846Z,2.20
2022-10-20T00:44:52.265Z,2.38
2022-10-20T00:47:37.476Z,2.10
2022-10-20T00:50:10.329Z,1.70
2022-10-20T00:52:38.957Z,2.13
2022-10-20T00:55:08.356Z,1.83
2022-10-20T00:57:35.881Z,2.13
2022-10-20T01:00:04.451Z,1.75
2022-10-20T01:02:31.096Z,2.15
2022-10-20T01:04:57.810Z,1.92
2022-10-20T01:07:24.436Z,2.35
2022-10-20T01:09:51.069Z,1.80
2022-10-20T01:12:37.186Z,2.22
2022-10-20T01:15:09.897Z,2.17
2022-10-20T01:17:49.733Z,2.30
2022-10-20T01:20:19.050Z,2.17
2022-10-20T01:22:51.673Z,2.17
2022-10-20T01:25:33.608Z,2.15
2022-10-20T01:28:11.215Z,1.92
2022-10-20T01:30:44.871Z,1.88
2022-10-20T01:33:20.894Z,2.25
2022-10-20T01:36:06.495Z,1.70
2022-10-20T01:38:53.216Z,1.90
2022-10-20T01:41:28.730Z,2.00
2022-10-20T01:43:56.401Z,1.98
2022-10-20T01:46:25.261Z,2.20
2022-10-20T01:48:52.056Z,2.22
2022-10-20T01:51:18.597Z,2.10
2022-10-20T01:53:45.135Z,2.22
2022-10-20T01:56:20.160Z,2.10
2022-10-20T01:59:19.111Z,2.50
2022-10-20T02:02:01.038Z,2.60
2022-10-20T02:04:36.921Z,2.10
2022-10-20T02:07:19.510Z,2.83
2022-10-20T02:12:24.701Z,2.72
2022-10-20T02:14:52.973Z,2.50
2022-10-20T02:17:20.860Z,2.53
2022-10-20T02:19:50.374Z,2.30
2022-10-20T02:22:19.735Z,3.10
2022-10-20T02:24:46.704Z,2.60
2022-10-20T02:27:17.035Z,2.45
2022-10-20T02:29:49.909Z,2.47
2022-10-20T02:32:18.065Z,2.25
2022-10-20T02:34:44.709Z,2.08
2022-10-20T02:37:11.549Z,2.78
2022-10-20T02:39:38.196Z,2.50
2022-10-20T02:42:04.750Z,2.33
2022-10-20T02:44:31.306Z,2.38
2022-10-20T02:46:57.906Z,2.47
2022-10-20T02:49:25.207Z,2.60
2022-10-20T02:51:51.797Z,2.35
2022-10-20T02:54:18.411Z,2.38
2022-10-20T02:56:44.979Z,2.10
2022-10-20T02:59:16.805Z,2.25
2022-10-20T03:01:45.568Z,2.03
2022-10-20T03:04:13.161Z,1.77
2022-10-20T03:06:41.101Z,2.10
2022-10-20T03:09:08.000Z,2.40
2022-10-20T03:11:34.675Z,2.10
2022-10-20T03:14:01.405Z,2.13
2022-10-20T03:16:28.177Z,2.15
2022-10-20T03:18:57.601Z,2.13
2022-10-20T03:21:25.476Z,1.70
2022-10-20T03:23:52.057Z,1.92
2022-10-20T03:26:18.576Z,2.10
2022-10-20T03:28:45.147Z,2.10
2022-10-20T03:31:11.761Z,1.90
2022-10-20T03:33:38.446Z,2.17
2022-10-20T03:36:06.112Z,2.38
2022-10-20T03:38:32.883Z,2.35
2022-10-20T03:40:59.407Z,1.90
2022-10-20T03:43:26.107Z,2.30
2022-10-20T03:46:03.069Z,2.22
2022-10-20T03:48:29.809Z,2.33
2022-10-20T03:50:56.692Z,2.25
2022-10-20T03:53:23.344Z,2.13
2022-10-20T03:55:49.806Z,2.30
2022-10-20T03:58:16.648Z,2.05
2022-10-20T04:00:43.308Z,2.70
2022-10-20T04:03:09.818Z,2.50
2022-10-20T04:05:36.511Z,2.85
2022-10-20T04:08:04.337Z,2.67
2022-10-20T04:10:30.952Z,2.47
2022-10-20T04:12:58.911Z,2.95
2022-10-20T04:15:25.861Z,2.20
2022-10-20T04:17:52.455Z,2.55
2022-10-20T04:20:19.329Z,2.92
2022-10-20T04:22:45.974Z,2.70
2022-10-20T04:25:12.665Z,2.78
2022-10-20T04:27:42.349Z,2.53
2022-10-20T04:30:10.028Z,2.75
2022-10-20T04:32:36.608Z,2.80
2022-10-20T04:35:03.665Z,3.10
2022-10-20T04:37:30.329Z,3.38
2022-10-20T04:39:58.056Z,2.78
2022-10-20T04:42:24.601Z,3.20
2022-10-20T04:44:51.244Z,2.85
2022-10-20T04:47:17.790Z,2.70
2022-10-20T04:49:44.395Z,3.13
2022-10-20T04:52:10.928Z,3.30
2022-10-20T04:54:37.740Z,3.53
2022-10-20T04:57:06.059Z,3.70
2022-10-20T04:59:32.635Z,3.88
2022-10-20T05:01:59.289Z,3.22
2022-10-20T05:04:25.982Z,3.28
2022-10-20T05:06:52.566Z,3.78
2022-10-20T05:09:19.152Z,3.13
2022-10-20T05:11:46.386Z,3.70
2022-10-20T05:14:13.437Z,2.92
2022-10-20T05:16:40.125Z,3.17
2022-10-20T05:19:06.710Z,3.33
2022-10-20T05:21:33.487Z,3.63
2022-10-20T05:24:01.927Z,3.90
2022-10-20T05:26:32.449Z,3.60
2022-10-20T05:28:59.010Z,3.88
2022-10-20T05:31:25.575Z,3.63
2022-10-20T05:33:54.835Z,3.65
2022-10-20T05:36:25.825Z,3.97
2022-10-20T05:38:54.323Z,3.63
2022-10-20T05:41:26.593Z,4.00
2022-10-20T05:43:57.564Z,3.75
2022-10-20T05:46:25.618Z,3.75
2022-10-20T05:48:57.543Z,4.20
2022-10-20T05:51:26.787Z,3.75
2022-10-20T05:53:56.033Z,3.63
2022-10-20T05:56:22.803Z,4.18
2022-10-20T05:58:50.014Z,3.97
2022-10-20T06:01:20.657Z,4.20
2022-10-20T06:03:52.087Z,4.38
2022-10-20T06:06:20.536Z,4.25
2022-10-20T06:08:48.081Z,3.92
2022-10-20T06:11:15.853Z,4.00
2022-10-20T06:13:45.044Z,4.10
2022-10-20T06:16:16.658Z,3.78
2022-10-20T06:18:43.930Z,3.88
2022-10-20T06:21:13.279Z,4.00
2022-10-20T06:23:39.919Z,3.90
2022-10-20T06:26:12.490Z,4.40
2022-10-20T06:28:41.118Z,4.13
2022-10-20T06:31:19.429Z,3.97
2022-10-20T06:33:46.733Z,3.50
2022-10-20T06:36:14.778Z,3.97
2022-10-20T06:38:42.024Z,4.28
2022-10-20T06:41:13.723Z,4.05
2022-10-20T06:43:40.363Z,4.40
2022-10-20T06:46:10.667Z,4.30
2022-10-20T06:48:37.458Z,4.00
2022-10-20T06:51:07.065Z,4.03
2022-10-20T06:53:35.567Z,3.53
2022-10-20T06:56:06.353Z,3.90
2022-10-20T06:58:34.897Z,3.47
2022-10-20T07:01:11.252Z,4.05
2022-10-20T07:03:39.184Z,4.97
2022-10-20T07:06:07.043Z,4.88
2022-10-20T07:08:35.676Z,4.90
2022-10-20T07:11:09.724Z,4.40
2022-10-20T07:13:37.639Z,4.63
2022-10-20T07:16:05.948Z,3.85
2022-10-20T07:18:32.827Z,3.65
2022-10-20T07:21:01.764Z,3.72
2022-10-20T07:23:29.473Z,3.75
2022-10-20T07:26:07.855Z,3.50
2022-10-20T07:28:35.952Z,3.60
2022-10-20T07:31:16.792Z,3.55
2022-10-20T07:33:43.453Z,3.38
2022-10-20T07:36:23.759Z,3.58
2022-10-20T07:38:52.363Z,3.88
2022-10-20T07:41:19.211Z,5.82
2022-10-20T07:43:45.804Z,7.95
2022-10-20T07:46:13.717Z,7.05
2022-10-20T07:48:40.781Z,4.60
2022-10-20T07:53:41.096Z,5.00
2022-10-20T07:56:08.175Z,5.40
2022-10-20T07:58:34.805Z,6.35
2022-10-20T08:01:01.861Z,5.00
2022-10-20T08:03:28.361Z,3.88
2022-10-20T08:05:54.861Z,3.70
2022-10-20T08:08:21.439Z,3.55
2022-10-20T08:10:47.966Z,4.75
2022-10-20T08:13:14.790Z,3.92
2022-10-20T08:15:41.410Z,3.50
2022-10-20T08:18:07.995Z,4.20
2022-10-20T08:20:41.240Z,4.00
2022-10-20T08:23:07.914Z,3.28
2022-10-20T08:25:34.488Z,3.50
2022-10-20T08:28:01.334Z,3.70
2022-10-20T08:30:27.808Z,4.00
2022-10-20T08:32:54.519Z,3.42
2022-10-20T08:35:22.219Z,5.05
2022-10-20T08:37:48.846Z,4.85
2022-10-20T08:40:19.324Z,5.53
2022-10-20T08:42:47.652Z,5.05
2022-10-20T08:45:16.377Z,4.90
2022-10-20T08:47:44.302Z,4.00
2022-10-20T08:50:13.898Z,4.10
2022-10-20T08:52:41.976Z,3.97
2022-10-20T08:55:30.145Z,3.40
2022-10-20T08:58:03.422Z,3.67
2022-10-20T09:00:31.770Z,4.00
2022-10-20T09:03:17.178Z,4.68
2022-10-20T09:05:48.635Z,4.00
2022-10-20T09:08:15.426Z,3.83
2022-10-20T09:10:48.603Z,3.40
2022-10-20T09:13:21.133Z,4.38
2022-10-20T09:15:58.914Z,4.45
2022-10-20T09:18:25.800Z,3.83
2022-10-20T09:20:56.240Z,4.28
2022-10-20T09:23:40.674Z,3.63
2022-10-20T09:26:37.388Z,3.95
2022-10-20T09:29:19.339Z,3.47
2022-10-20T09:31:54.818Z,3.92
2022-10-20T09:34:25.520Z,4.00
2022-10-20T09:37:11.587Z,3.55
2022-10-20T09:39:51.366Z,3.70
2022-10-20T09:42:23.325Z,3.50
2022-10-20T09:45:19.718Z,3.60
2022-10-20T09:47:50.547Z,4.28
2022-10-20T09:50:39.163Z,3.70
2022-10-20T09:53:15.622Z,3.65
2022-10-20T09:55:47.720Z,3.58
2022-10-20T09:58:21.585Z,3.75
2022-10-20T10:00:57.994Z,3.72
2022-10-20T10:03:25.224Z,3.38
2022-10-20T10:06:00.101Z,3.70
2022-10-20T10:08:40.611Z,3.42
2022-10-20T10:11:16.109Z,3.50
2022-10-20T10:13:45.070Z,3.08
2022-10-20T10:16:15.789Z,3.45
2022-10-20T10:18:48.514Z,3.75
2022-10-20T10:21:17.430Z,3.40
2022-10-20T10:23:56.127Z,3.97
2022-10-20T10:26:42.477Z,3.47
2022-10-20T10:29:28.276Z,4.25
2022-10-20T10:32:15.797Z,3.45
2022-10-20T10:35:02.374Z,2.80
2022-10-20T10:37:34.015Z,3.42
2022-10-20T10:40:11.628Z,3.38
2022-10-20T10:43:05.610Z,3.22
2022-10-20T10:45:44.539Z,2.97
2022-10-20T10:48:42.518Z,3.05
2022-10-20T10:51:21.171Z,3.08
2022-10-20T10:53:56.438Z,2.85
2022-10-20T10:56:36.126Z,3.00
2022-10-20T10:59:14.097Z,2.90
2022-10-20T11:01:57.832Z,2.97
2022-10-20T11:04:49.093Z,4.50
2022-10-20T11:07:32.394Z,3.00
2022-10-20T11:09:58.896Z,2.72
2022-10-20T11:12:49.828Z,2.88
2022-10-20T11:16:00.495Z,2.78
2022-10-20T11:18:54.411Z,3.15
2022-10-20T11:21:32.830Z,2.90
2022-10-20T11:24:02.023Z,2.28
2022-10-20T11:26:33.770Z,3.47
2022-10-20T11:29:03.311Z,2.92
2022-10-20T11:31:50.752Z,3.08
2022-10-20T11:34:26.359Z,2.90
2022-10-20T11:37:13.028Z,2.95
2022-10-20T11:39:45.741Z,2.65
2022-10-20T11:42:25.539Z,2.20
2022-10-20T11:44:55.212Z,2.78
2022-10-20T11:47:30.688Z,2.80
2022-10-20T11:49:58.906Z,2.63
2022-10-20T11:52:25.583Z,2.92
2022-10-20T11:55:17.965Z,2.65
2022-10-20T11:58:18.571Z,2.60
2022-10-20T12:01:06.054Z,3.08
2022-10-20T12:03:54.108Z,2.65
2022-10-20T12:06:35.842Z,2.38
2022-10-20T12:09:14.886Z,2.50
2022-10-20T12:11:56.533Z,2.78
2022-10-20T12:14:41.097Z,2.53
2022-10-20T12:17:43.238Z,2.88
2022-10-20T12:20:38.675Z,2.67
2022-10-20T12:23:05.409Z,3.22
2022-10-20T12:25:38.588Z,2.50
2022-10-20T12:28:25.551Z,2.80
2022-10-20T12:30:59.646Z,2.63
2022-10-20T12:33:37.048Z,2.70
2022-10-20T12:36:17.233Z,3.47
2022-10-20T12:38:50.760Z,3.53
2022-10-20T12:41:29.188Z,3.28
2022-10-20T12:44:02.492Z,2.95
2022-10-20T12:46:32.244Z,3.20
2022-10-20T12:49:10.997Z,3.28
2022-10-20T12:51:48.843Z,3.22
2022-10-20T12:54:30.930Z,3.47
2022-10-20T12:57:04.937Z,3.40
2022-10-20T12:59:31.380Z,3.42
2022-10-20T13:02:10.001Z,3.15
2022-10-20T13:04:57.830Z,3.63
2022-10-20T13:07:46.252Z,3.38
2022-10-20T13:10:32.844Z,3.53
2022-10-20T13:13:02.152Z,3.17
2022-10-20T13:15:39.076Z,3.13
2022-10-20T13:18:11.609Z,2.88
2022-10-20T13:20:46.868Z,3.28
2022-10-20T13:23:15.805Z,2.80
2022-10-20T13:25:52.347Z,2.83
2022-10-20T13:28:23.737Z,2.92
2022-10-20T13:30:56.127Z,2.80
2022-10-20T13:34:08.419Z,3.17
2022-10-20T13:37:02.884Z,3.10
2022-10-20T13:39:49.849Z,3.60
2022-10-20T13:42:50.610Z,3.35
2022-10-20T13:45:25.918Z,3.33
2022-10-20T13:48:32.063Z,3.38
2022-10-20T13:51:03.076Z,3.47
2022-10-20T13:53:40.233Z,3.58
2022-10-20T13:56:15.910Z,3.30
2022-10-20T13:59:14.772Z,3.60
2022-10-20T14:01:46.898Z,3.60
2022-10-20T14:04:39.666Z,3.33
2022-10-20T14:07:13.101Z,3.40
2022-10-20T14:09:45.341Z,3.42
2022-10-20T14:12:25.503Z,3.60
2022-10-20T14:14:59.268Z,3.95
2022-10-20T14:17:28.214Z,3.40
2022-10-20T14:20:27.463Z,3.15
2022-10-20T14:22:55.858Z,3.30
2022-10-20T14:25:22.931Z,3.22
2022-10-20T14:27:51.643Z,3.20
2022-10-20T14:30:18.807Z,3.38
2022-10-20T14:32:47.091Z,3.42
2022-10-20T14:35:13.951Z,3.28
2022-10-20T14:37:44.778Z,4.07
2022-10-20T14:40:24.356Z,3.47
2022-10-20T14:42:52.148Z,3.88
2022-10-20T14:45:27.521Z,3.15
2022-10-20T14:47:57.417Z,3.25
2022-10-20T14:50:34.081Z,3.25
2022-10-20T14:53:33.641Z,3.35
2022-10-20T14:56:02.781Z,3.42
2022-10-20T14:58:36.123Z,3.40
2022-10-20T15:01:24.815Z,3.05
2022-10-20T15:04:05.948Z,3.10
2022-10-20T15:06:32.926Z,2.55
2022-10-20T15:08:59.874Z,3.10
2022-10-20T15:11:28.265Z,2.88
2022-10-20T15:13:59.104Z,3.00
2022-10-20T15:16:43.799Z,3.00
2022-10-20T15:19:25.393Z,2.78
2022-10-20T15:22:10.234Z,2.92
2022-10-20T15:24:37.750Z,2.83
2022-10-20T15:27:05.759Z,2.83
2022-10-20T15:29:33.091Z,3.20
2022-10-20T15:31:59.891Z,2.90
2022-10-20T15:34:26.801Z,3.03
2022-10-20T15:36:53.408Z,2.30
2022-10-20T15:39:20.208Z,2.42
2022-10-20T15:41:49.068Z,2.80
2022-10-20T15:44:22.074Z,2.60
2022-10-20T15:46:53.065Z,2.40
2022-10-20T15:49:20.454Z,15.15
2022-10-20T15:51:47.905Z,6.00
2022-10-20T15:54:17.450Z,4.28
2022-10-20T15:56:44.561Z,2.83
2022-10-20T15:59:11.157Z,2.65
2022-10-20T16:01:38.145Z,3.13
2022-10-20T16:04:23.102Z,4.07
2022-10-20T16:06:52.471Z,4.80
2022-10-20T16:09:20.498Z,10.75
2022-10-20T16:11:47.113Z,3.40
2022-10-20T16:14:15.508Z,2.45
2022-10-20T16:16:44.896Z,2.30
2022-10-20T16:19:11.596Z,2.45
2022-10-20T16:21:38.146Z,2.17
2022-10-20T16:24:05.127Z,2.20
2022-10-20T16:26:31.792Z,2.00
2022-10-20T16:28:59.738Z,2.17
2022-10-20T16:31:26.456Z,2.42
2022-10-20T16:33:52.913Z,2.40
2022-10-20T16:36:21.594Z,2.35
2022-10-20T16:38:48.263Z,2.40
2022-10-20T16:41:15.473Z,2.20
2022-10-20T16:43:44.594Z,2.45
2022-10-20T16:46:12.983Z,2.30
2022-10-20T16:48:42.546Z,2.45
2022-10-20T16:51:11.888Z,2.65
2022-10-20T16:53:38.985Z,2.72
2022-10-20T16:56:06.783Z,2.33
2022-10-20T16:58:33.806Z,2.08
2022-10-20T17:01:09.821Z,2.35
2022-10-20T17:03:37.734Z,2.13
2022-10-20T17:06:07.004Z,1.73
2022-10-20T17:08:36.346Z,2.17
2022-10-20T17:11:06.416Z,2.22
2022-10-20T17:13:33.801Z,2.70
2022-10-20T17:16:05.349Z,3.13
2022-10-20T17:18:32.249Z,3.13
2022-10-20T17:20:59.004Z,3.05
2022-10-20T17:23:26.170Z,2.42
2022-10-20T17:25:53.534Z,2.30
2022-10-20T17:28:20.081Z,3.10
2022-10-20T17:30:48.006Z,2.63
2022-10-20T17:33:15.086Z,3.13
2022-10-20T17:35:47.491Z,2.50
2022-10-20T17:38:14.076Z,2.53
2022-10-20T17:40:40.730Z,2.45
2022-10-20T17:43:07.379Z,3.60
2022-10-20T17:45:36.270Z,3.17
2022-10-20T17:48:05.167Z,2.60
2022-10-20T17:50:31.819Z,3.30
2022-10-20T17:53:01.479Z,3.22
2022-10-20T17:55:28.926Z,2.88
2022-10-20T17:57:56.127Z,3.50
2022-10-20T18:00:43.969Z,3.40
2022-10-20T18:03:09.560Z,3.65
2022-10-20T18:05:36.663Z,3.17
2022-10-20T18:08:03.346Z,3.97
2022-10-20T18:10:30.111Z,3.75
2022-10-20T18:12:56.677Z,4.93
2022-10-20T18:15:23.309Z,6.35
2022-10-20T18:17:49.906Z,4.55
2022-10-20T18:20:16.617Z,4.78
2022-10-20T18:22:43.215Z,4.45
2022-10-20T18:25:09.998Z,4.15
2022-10-20T18:27:36.503Z,4.10
2022-10-20T18:30:03.192Z,3.80
2022-10-20T18:32:29.740Z,4.30
2022-10-20T18:34:56.432Z,4.68
2022-10-20T18:37:23.064Z,4.90
2022-10-20T18:39:49.795Z,4.70
2022-10-20T18:42:16.801Z,5.22
2022-10-20T18:44:43.378Z,4.45
2022-10-20T18:47:11.018Z,4.82
2022-10-20T18:49:37.595Z,6.00
2022-10-20T18:52:04.334Z,5.68
2022-10-20T18:54:31.020Z,5.63
2022-10-20T18:56:58.031Z,7.53
2022-10-20T18:59:24.664Z,9.75
2022-10-20T19:01:51.387Z,7.97
2022-10-20T19:04:18.080Z,7.07
2022-10-20T19:06:47.444Z,9.32
2022-10-20T19:09:16.999Z,7.40
2022-10-20T19:11:44.980Z,8.77
2022-10-20T19:14:12.490Z,8.15
2022-10-20T19:16:41.247Z,6.00
2022-10-20T19:19:08.459Z,5.45
2022-10-20T19:21:35.843Z,5.80
2022-10-20T19:24:05.954Z,5.20
2022-10-20T19:26:36.396Z,5.30
2022-10-20T19:29:06.622Z,4.72
2022-10-20T19:31:39.881Z,4.45
2022-10-20T19:34:09.917Z,5.05
2022-10-20T19:36:37.420Z,4.25
2022-10-20T19:39:06.472Z,4.53
2022-10-20T19:41:33.377Z,4.25
2022-10-20T19:44:00.031Z,3.95
2022-10-20T19:46:26.633Z,4.18
2022-10-20T19:48:53.339Z,3.95
2022-10-20T19:51:20.854Z,4.10
2022-10-20T19:53:48.315Z,4.82
2022-10-20T19:56:15.785Z,4.22
2022-10-20T19:58:45.735Z,4.00
2022-10-20T20:01:13.633Z,4.40
2022-10-20T20:03:40.404Z,4.05
2022-10-20T20:06:09.891Z,4.75
2022-10-20T20:08:37.033Z,4.85
2022-10-20T20:11:05.182Z,4.63
2022-10-20T20:13:31.966Z,4.97
2022-10-20T20:16:07.068Z,4.88
2022-10-20T20:18:35.427Z,5.35
2022-10-20T20:21:04.272Z,7.03
2022-10-20T20:23:41.227Z,8.73
2022-10-20T20:26:17.865Z,9.88
2022-10-20T20:28:44.385Z,7.22
2022-10-20T20:31:12.055Z,5.68
2022-10-20T20:33:38.868Z,6.32
2022-10-20T20:36:08.087Z,5.45
2022-10-20T20:38:37.727Z,5.88
2022-10-20T20:41:07.460Z,6.00
2022-10-20T20:43:37.320Z,7.05
2022-10-20T20:46:06.089Z,6.03
2022-10-20T20:48:35.455Z,6.75
2022-10-20T20:51:02.257Z,6.15
2022-10-20T20:53:29.322Z,5.70
2022-10-20T20:56:00.623Z,5.75
2022-10-20T20:58:30.973Z,5.72
2022-10-20T21:01:06.155Z,5.80
2022-10-20T21:03:33.479Z,5.07
2022-10-20T21:06:11.096Z,5.88
2022-10-20T21:08:39.693Z,6.40
2022-10-20T21:11:14.974Z,5.60
2022-10-20T21:13:42.976Z,6.35
2022-10-20T21:16:19.625Z,6.15
2022-10-20T21:18:48.844Z,5.95
2022-10-20T21:21:24.436Z,5.05
2022-10-20T21:23:51.789Z,5.30
2022-10-20T21:26:20.217Z,5.50
2022-10-20T21:28:47.649Z,5.40
2022-10-20T21:31:18.436Z,5.03
2022-10-20T21:33:46.399Z,5.20
2022-10-20T21:36:15.339Z,5.28
2022-10-20T21:38:43.035Z,5.15
2022-10-20T21:41:21.343Z,5.60
2022-10-20T21:43:52.742Z,5.63
2022-10-20T21:46:28.560Z,5.43
2022-10-20T21:48:59.497Z,5.22
2022-10-20T21:51:29.332Z,5.63
2022-10-20T21:54:01.380Z,6.40
2022-10-20T21:56:28.597Z,5.90
2022-10-20T21:58:55.862Z,5.82
2022-10-20T22:01:24.557Z,5.70
2022-10-20T22:03:53.035Z,5.88
2022-10-20T22:06:25.292Z,5.47
2022-10-20T22:08:54.784Z,5.82
2022-10-20T22:11:27.259Z,5.82
2022-10-20T22:13:53.982Z,6.20
2022-10-20T22:16:24.136Z,6.18
2022-10-20T22:19:05.032Z,5.72
2022-10-20T22:21:31.894Z,5.93
2022-10-20T22:23:59.604Z,6.38
2022-10-20T22:26:28.312Z,6.35
2022-10-20T22:28:55.479Z,6.47
2022-10-20T22:31:23.306Z,6.50
2022-10-20T22:33:51.439Z,6.35
2022-10-20T22:36:19.682Z,5.88
2022-10-20T22:38:46.259Z,6.53
2022-10-20T22:41:13.389Z,6.13
2022-10-20T22:43:39.876Z,6.03
2022-10-20T22:46:06.683Z,5.60
2022-10-20T22:48:33.424Z,5.75
2022-10-20T22:51:00.021Z,6.15
2022-10-20T22:53:27.224Z,6.00
2022-10-20T22:55:54.320Z,5.35
2022-10-20T22:58:23.871Z,5.50
2022-10-20T23:00:50.494Z,5.43
2022-10-20T23:03:17.177Z,6.20
2022-10-20T23:05:43.660Z,5.80
2022-10-20T23:08:10.303Z,5.78
2022-10-20T23:10:36.848Z,5.70
2022-10-20T23:13:03.375Z,5.95
2022-10-20T23:15:29.934Z,5.82
2022-10-20T23:17:56.591Z,6.20
2022-10-20T23:20:23.256Z,6.03
2022-10-20T23:22:49.779Z,4.97
2022-10-20T23:25:16.616Z,5.65
2022-10-20T23:27:43.139Z,5.93
2022-10-20T23:30:10.242Z,6.55
2022-10-20T23:32:36.775Z,5.82
2022-10-20T23:35:03.497Z,5.65
2022-10-20T23:37:30.085Z,5.68
2022-10-20T23:39:56.660Z,5.40
2022-10-20T23:42:23.305Z,5.45
2022-10-20T23:44:49.791Z,5.57
2022-10-20T23:47:16.313Z,5.63
2022-10-20T23:49:42.941Z,5.55
2022-10-20T23:52:09.503Z,5.60
2022-10-20T23:54:36.088Z,5.88
2022-10-20T23:57:02.746Z,5.68
2022-10-20T23:59:29.259Z,5.65
